sensor_id;sensor_type;location;lat;lon;timestamp;P1;durP1;ratioP1;P2;durP2;ratioP2
66933;SDS011;53846;51.984;5.890;2022-12-07T00:01:35;245.83;;;233.10;;
66933;SDS011;53846;51.984;5.890;2022-12-07T00:04:07;215.70;;;204.67;;
66933;SDS011;53846;51.984;5.890;2022-12-07T00:06:42;238.23;;;225.93;;
66933;SDS011;53846;51.984;5.890;2022-12-07T00:09:13;193.60;;;183.67;;
66933;SDS011;53846;51.984;5.890;2022-12-07T00:11:47;210.40;;;199.60;;
66933;SDS011;53846;51.984;5.890;2022-12-07T00:14:20;229.00;;;217.20;;
66933;SDS011;53846;51.984;5.890;2022-12-07T00:16:56;209.27;;;198.70;;
66933;SDS011;53846;51.984;5.890;2022-12-07T00:19:25;190.23;;;180.47;;
66933;SDS011;53846;51.984;5.890;2022-12-07T00:21:55;213.43;;;202.37;;
66933;SDS011;53846;51.984;5.890;2022-12-07T00:24:29;232.83;;;220.87;;
66933;SDS011;53846;51.984;5.890;2022-12-07T00:26:58;241.93;;;229.13;;
66933;SDS011;53846;51.984;5.890;2022-12-07T00:29:27;227.70;;;215.93;;
66933;SDS011;53846;51.984;5.890;2022-12-07T00:32:05;208.23;;;197.33;;
66933;SDS011;53846;51.984;5.890;2022-12-07T00:34:35;199.30;;;188.97;;
66933;SDS011;53846;51.984;5.890;2022-12-07T00:37:05;234.43;;;222.23;;
66933;SDS011;53846;51.984;5.890;2022-12-07T00:39:34;186.13;;;176.70;;
66933;SDS011;53846;51.984;5.890;2022-12-07T00:42:05;252.23;;;239.27;;
66933;SDS011;53846;51.984;5.890;2022-12-07T00:44:34;227.57;;;215.73;;
66933;SDS011;53846;51.984;5.890;2022-12-07T00:47:08;180.93;;;171.80;;
66933;SDS011;53846;51.984;5.890;2022-12-07T00:49:37;214.63;;;203.67;;
66933;SDS011;53846;51.984;5.890;2022-12-07T00:52:06;224.67;;;213.27;;
66933;SDS011;53846;51.984;5.890;2022-12-07T00:54:35;192.13;;;182.27;;
66933;SDS011;53846;51.984;5.890;2022-12-07T00:57:05;185.37;;;175.70;;
66933;SDS011;53846;51.984;5.890;2022-12-07T00:59:34;202.20;;;191.77;;
66933;SDS011;53846;51.984;5.890;2022-12-07T01:02:07;188.47;;;178.90;;
66933;SDS011;53846;51.984;5.890;2022-12-07T01:04:36;216.00;;;204.97;;
66933;SDS011;53846;51.984;5.890;2022-12-07T01:07:05;222.50;;;210.97;;
66933;SDS011;53846;51.984;5.890;2022-12-07T01:09:36;181.17;;;172.03;;
66933;SDS011;53846;51.984;5.890;2022-12-07T01:12:06;192.17;;;182.30;;
66933;SDS011;53846;51.984;5.890;2022-12-07T01:14:35;222.07;;;210.73;;
66933;SDS011;53846;51.984;5.890;2022-12-07T01:17:07;176.73;;;167.80;;
66933;SDS011;53846;51.984;5.890;2022-12-07T01:19:38;193.20;;;183.27;;
66933;SDS011;53846;51.984;5.890;2022-12-07T01:22:07;212.30;;;201.50;;
66933;SDS011;53846;51.984;5.890;2022-12-07T01:24:36;193.47;;;183.50;;
66933;SDS011;53846;51.984;5.890;2022-12-07T01:27:05;179.23;;;169.93;;
66933;SDS011;53846;51.984;5.890;2022-12-07T01:29:40;219.80;;;208.27;;
66933;SDS011;53846;51.984;5.890;2022-12-07T01:32:12;201.50;;;191.03;;
66933;SDS011;53846;51.984;5.890;2022-12-07T01:34:41;210.03;;;199.37;;
66933;SDS011;53846;51.984;5.890;2022-12-07T01:37:12;170.57;;;161.80;;
66933;SDS011;53846;51.984;5.890;2022-12-07T01:39:41;179.90;;;170.73;;
66933;SDS011;53846;51.984;5.890;2022-12-07T01:42:10;194.10;;;184.27;;
66933;SDS011;53846;51.984;5.890;2022-12-07T01:47:45;183.93;;;174.47;;
66933;SDS011;53846;51.984;5.890;2022-12-07T01:50:24;165.87;;;157.33;;
66933;SDS011;53846;51.984;5.890;2022-12-07T01:52:57;206.37;;;195.83;;
66933;SDS011;53846;51.984;5.890;2022-12-07T01:55:29;172.33;;;163.53;;
66933;SDS011;53846;51.984;5.890;2022-12-07T01:57:59;173.00;;;164.30;;
66933;SDS011;53846;51.984;5.890;2022-12-07T02:00:29;154.27;;;146.40;;
66933;SDS011;53846;51.984;5.890;2022-12-07T02:03:03;160.90;;;152.73;;
66933;SDS011;53846;51.984;5.890;2022-12-07T02:05:35;173.97;;;165.17;;
66933;SDS011;53846;51.984;5.890;2022-12-07T02:08:09;196.50;;;186.47;;
66933;SDS011;53846;51.984;5.890;2022-12-07T02:10:51;144.10;;;136.97;;
66933;SDS011;53846;51.984;5.890;2022-12-07T02:13:25;164.23;;;156.00;;
66933;SDS011;53846;51.984;5.890;2022-12-07T02:16:03;143.97;;;136.67;;
66933;SDS011;53846;51.984;5.890;2022-12-07T02:18:47;170.40;;;161.70;;
66933;SDS011;53846;51.984;5.890;2022-12-07T02:21:25;144.77;;;137.53;;
66933;SDS011;53846;51.984;5.890;2022-12-07T02:24:07;151.10;;;143.57;;
66933;SDS011;53846;51.984;5.890;2022-12-07T02:27:06;184.80;;;175.37;;
66933;SDS011;53846;51.984;5.890;2022-12-07T02:29:53;103.93;;;98.73;;
66933;SDS011;53846;51.984;5.890;2022-12-07T02:32:31;129.13;;;122.73;;
66933;SDS011;53846;51.984;5.890;2022-12-07T02:35:12;177.00;;;167.83;;
66933;SDS011;53846;51.984;5.890;2022-12-07T02:37:48;302.35;;;286.52;;
66933;SDS011;53846;51.984;5.890;2022-12-07T02:40:24;262.27;;;248.60;;
66933;SDS011;53846;51.984;5.890;2022-12-07T02:42:57;213.70;;;202.77;;
66933;SDS011;53846;51.984;5.890;2022-12-07T02:45:33;194.17;;;184.27;;
66933;SDS011;53846;51.984;5.890;2022-12-07T02:48:05;209.60;;;199.03;;
66933;SDS011;53846;51.984;5.890;2022-12-07T02:50:38;196.47;;;186.47;;
66933;SDS011;53846;51.984;5.890;2022-12-07T02:55:58;166.07;;;157.57;;
66933;SDS011;53846;51.984;5.890;2022-12-07T02:58:32;196.50;;;186.50;;
66933;SDS011;53846;51.984;5.890;2022-12-07T03:01:11;132.80;;;126.23;;
66933;SDS011;53846;51.984;5.890;2022-12-07T03:03:48;163.57;;;155.30;;
66933;SDS011;53846;51.984;5.890;2022-12-07T03:06:27;142.07;;;135.00;;
66933;SDS011;53846;51.984;5.890;2022-12-07T03:09:02;156.03;;;148.17;;
66933;SDS011;53846;51.984;5.890;2022-12-07T03:11:41;160.37;;;152.20;;
66933;SDS011;53846;51.984;5.890;2022-12-07T03:14:14;131.57;;;125.03;;
66933;SDS011;53846;51.984;5.890;2022-12-07T03:16:53;181.97;;;172.50;;
66933;SDS011;53846;51.984;5.890;2022-12-07T03:19:29;143.20;;;136.03;;
66933;SDS011;53846;51.984;5.890;2022-12-07T03:22:02;150.00;;;142.40;;
66933;SDS011;53846;51.984;5.890;2022-12-07T03:24:35;175.37;;;166.47;;
66933;SDS011;53846;51.984;5.890;2022-12-07T03:27:13;159.90;;;151.67;;
66933;SDS011;53846;51.984;5.890;2022-12-07T03:29:47;169.70;;;161.17;;
66933;SDS011;53846;51.984;5.890;2022-12-07T03:32:25;144.33;;;137.10;;
66933;SDS011;53846;51.984;5.890;2022-12-07T03:35:00;182.27;;;173.13;;
66933;SDS011;53846;51.984;5.890;2022-12-07T03:37:34;142.33;;;135.10;;
66933;SDS011;53846;51.984;5.890;2022-12-07T03:40:11;164.27;;;155.83;;
66933;SDS011;53846;51.984;5.890;2022-12-07T03:42:48;158.37;;;150.23;;
66933;SDS011;53846;51.984;5.890;2022-12-07T03:45:18;198.67;;;188.60;;
66933;SDS011;53846;51.984;5.890;2022-12-07T03:47:54;197.97;;;187.83;;
66933;SDS011;53846;51.984;5.890;2022-12-07T03:50:32;167.20;;;158.70;;
66933;SDS011;53846;51.984;5.890;2022-12-07T03:53:11;163.57;;;155.37;;
66933;SDS011;53846;51.984;5.890;2022-12-07T03:55:44;164.67;;;156.03;;
66933;SDS011;53846;51.984;5.890;2022-12-07T03:58:17;180.93;;;171.77;;
66933;SDS011;53846;51.984;5.890;2022-12-07T04:00:49;165.47;;;157.13;;
66933;SDS011;53846;51.984;5.890;2022-12-07T04:03:24;141.90;;;134.67;;
66933;SDS011;53846;51.984;5.890;2022-12-07T04:06:01;144.07;;;136.90;;
66933;SDS011;53846;51.984;5.890;2022-12-07T04:08:30;191.67;;;181.53;;
66933;SDS011;53846;51.984;5.890;2022-12-07T04:11:02;319.42;;;302.75;;
66933;SDS011;53846;51.984;5.890;2022-12-07T04:13:31;238.10;;;225.83;;
66933;SDS011;53846;51.984;5.890;2022-12-07T04:16:21;200.47;;;190.20;;
66933;SDS011;53846;51.984;5.890;2022-12-07T04:18:55;170.47;;;161.67;;
66933;SDS011;53846;51.984;5.890;2022-12-07T04:21:24;200.60;;;190.27;;
66933;SDS011;53846;51.984;5.890;2022-12-07T04:23:54;190.97;;;181.27;;
66933;SDS011;53846;51.984;5.890;2022-12-07T04:26:25;196.57;;;186.63;;
66933;SDS011;53846;51.984;5.890;2022-12-07T04:28:57;197.00;;;187.10;;
66933;SDS011;53846;51.984;5.890;2022-12-07T04:31:29;204.17;;;193.80;;
66933;SDS011;53846;51.984;5.890;2022-12-07T04:34:00;204.50;;;194.07;;
66933;SDS011;53846;51.984;5.890;2022-12-07T04:36:30;176.30;;;167.33;;
66933;SDS011;53846;51.984;5.890;2022-12-07T04:38:59;220.27;;;208.90;;
66933;SDS011;53846;51.984;5.890;2022-12-07T04:41:29;181.30;;;171.93;;
66933;SDS011;53846;51.984;5.890;2022-12-07T04:44:00;174.60;;;165.60;;
66933;SDS011;53846;51.984;5.890;2022-12-07T04:46:33;146.20;;;138.87;;
66933;SDS011;53846;51.984;5.890;2022-12-07T04:49:05;184.40;;;175.17;;
66933;SDS011;53846;51.984;5.890;2022-12-07T04:51:34;202.73;;;192.37;;
66933;SDS011;53846;51.984;5.890;2022-12-07T04:54:03;220.37;;;208.93;;
66933;SDS011;53846;51.984;5.890;2022-12-07T04:56:33;189.20;;;179.47;;
66933;SDS011;53846;51.984;5.890;2022-12-07T04:59:03;201.40;;;191.00;;
66933;SDS011;53846;51.984;5.890;2022-12-07T05:01:33;148.37;;;140.90;;
66933;SDS011;53846;51.984;5.890;2022-12-07T05:04:05;201.33;;;191.03;;
66933;SDS011;53846;51.984;5.890;2022-12-07T05:06:35;162.53;;;154.23;;
66933;SDS011;53846;51.984;5.890;2022-12-07T05:09:05;190.90;;;181.13;;
66933;SDS011;53846;51.984;5.890;2022-12-07T05:11:34;213.30;;;202.47;;
66933;SDS011;53846;51.984;5.890;2022-12-07T05:14:07;199.50;;;189.47;;
66933;SDS011;53846;51.984;5.890;2022-12-07T05:16:43;185.50;;;175.93;;
66933;SDS011;53846;51.984;5.890;2022-12-07T05:19:17;176.80;;;167.67;;
66933;SDS011;53846;51.984;5.890;2022-12-07T05:21:47;128.27;;;121.90;;
66933;SDS011;53846;51.984;5.890;2022-12-07T05:24:17;187.60;;;178.03;;
66933;SDS011;53846;51.984;5.890;2022-12-07T05:26:46;174.03;;;165.30;;
66933;SDS011;53846;51.984;5.890;2022-12-07T05:29:16;144.70;;;137.33;;
66933;SDS011;53846;51.984;5.890;2022-12-07T05:31:45;154.20;;;146.53;;
66933;SDS011;53846;51.984;5.890;2022-12-07T05:34:17;316.60;;;300.17;;
66933;SDS011;53846;51.984;5.890;2022-12-07T05:36:46;232.40;;;220.30;;
66933;SDS011;53846;51.984;5.890;2022-12-07T05:39:16;191.97;;;182.03;;
66933;SDS011;53846;51.984;5.890;2022-12-07T05:41:45;192.90;;;183.00;;
66933;SDS011;53846;51.984;5.890;2022-12-07T05:44:27;201.07;;;190.87;;
66933;SDS011;53846;51.984;5.890;2022-12-07T05:46:56;270.67;;;256.63;;
66933;SDS011;53846;51.984;5.890;2022-12-07T05:49:28;212.47;;;201.47;;
66933;SDS011;53846;51.984;5.890;2022-12-07T05:51:59;175.50;;;166.67;;
66933;SDS011;53846;51.984;5.890;2022-12-07T05:54:28;174.37;;;165.57;;
66933;SDS011;53846;51.984;5.890;2022-12-07T05:56:58;197.73;;;187.63;;
66933;SDS011;53846;51.984;5.890;2022-12-07T05:59:27;203.43;;;193.10;;
66933;SDS011;53846;51.984;5.890;2022-12-07T06:01:57;139.10;;;132.03;;
66933;SDS011;53846;51.984;5.890;2022-12-07T06:04:31;190.23;;;180.63;;
66933;SDS011;53846;51.984;5.890;2022-12-07T06:07:01;155.90;;;147.90;;
66933;SDS011;53846;51.984;5.890;2022-12-07T06:09:38;155.77;;;147.97;;
66933;SDS011;53846;51.984;5.890;2022-12-07T06:12:08;178.57;;;169.50;;
66933;SDS011;53846;51.984;5.890;2022-12-07T06:14:51;113.87;;;108.27;;
66933;SDS011;53846;51.984;5.890;2022-12-07T06:17:20;170.40;;;161.50;;
66933;SDS011;53846;51.984;5.890;2022-12-07T06:19:52;156.70;;;148.83;;
66933;SDS011;53846;51.984;5.890;2022-12-07T06:22:23;142.70;;;135.53;;
66933;SDS011;53846;51.984;5.890;2022-12-07T06:24:53;147.90;;;140.40;;
66933;SDS011;53846;51.984;5.890;2022-12-07T06:27:23;156.37;;;148.43;;
66933;SDS011;53846;51.984;5.890;2022-12-07T06:29:55;158.00;;;150.13;;
66933;SDS011;53846;51.984;5.890;2022-12-07T06:32:25;126.80;;;120.47;;
66933;SDS011;53846;51.984;5.890;2022-12-07T06:34:58;149.60;;;142.13;;
66933;SDS011;53846;51.984;5.890;2022-12-07T06:37:28;101.10;;;96.10;;
66933;SDS011;53846;51.984;5.890;2022-12-07T06:40:00;154.07;;;146.23;;
66933;SDS011;53846;51.984;5.890;2022-12-07T06:42:32;167.80;;;159.20;;
66933;SDS011;53846;51.984;5.890;2022-12-07T06:45:01;137.33;;;130.43;;
66933;SDS011;53846;51.984;5.890;2022-12-07T06:47:32;143.40;;;136.07;;
66933;SDS011;53846;51.984;5.890;2022-12-07T06:50:04;115.83;;;110.10;;
66933;SDS011;53846;51.984;5.890;2022-12-07T06:52:36;122.00;;;115.87;;
66933;SDS011;53846;51.984;5.890;2022-12-07T06:55:06;119.60;;;113.67;;
66933;SDS011;53846;51.984;5.890;2022-12-07T06:57:35;132.80;;;126.17;;
66933;SDS011;53846;51.984;5.890;2022-12-07T07:00:05;131.10;;;124.53;;
66933;SDS011;53846;51.984;5.890;2022-12-07T07:02:35;110.00;;;104.57;;
66933;SDS011;53846;51.984;5.890;2022-12-07T07:05:07;163.00;;;154.70;;
66933;SDS011;53846;51.984;5.890;2022-12-07T07:07:39;158.00;;;149.90;;
66933;SDS011;53846;51.984;5.890;2022-12-07T07:10:08;124.40;;;118.20;;
66933;SDS011;53846;51.984;5.890;2022-12-07T07:12:40;191.47;;;181.87;;
66933;SDS011;53846;51.984;5.890;2022-12-07T07:15:12;138.77;;;131.93;;
66933;SDS011;53846;51.984;5.890;2022-12-07T07:17:41;135.00;;;128.37;;
66933;SDS011;53846;51.984;5.890;2022-12-07T07:20:15;122.10;;;116.00;;
66933;SDS011;53846;51.984;5.890;2022-12-07T07:22:46;289.60;;;274.63;;
66933;SDS011;53846;51.984;5.890;2022-12-07T07:25:18;192.67;;;182.83;;
66933;SDS011;53846;51.984;5.890;2022-12-07T07:27:47;173.70;;;164.87;;
66933;SDS011;53846;51.984;5.890;2022-12-07T07:30:16;150.47;;;142.83;;
66933;SDS011;53846;51.984;5.890;2022-12-07T07:32:45;164.30;;;156.00;;
66933;SDS011;53846;51.984;5.890;2022-12-07T07:35:17;166.20;;;157.80;;
66933;SDS011;53846;51.984;5.890;2022-12-07T07:37:46;145.50;;;138.20;;
66933;SDS011;53846;51.984;5.890;2022-12-07T07:40:16;130.17;;;123.70;;
66933;SDS011;53846;51.984;5.890;2022-12-07T07:42:48;123.73;;;117.40;;
66933;SDS011;53846;51.984;5.890;2022-12-07T07:45:18;142.90;;;135.63;;
66933;SDS011;53846;51.984;5.890;2022-12-07T07:47:48;196.67;;;186.57;;
66933;SDS011;53846;51.984;5.890;2022-12-07T07:50:20;167.00;;;158.40;;
66933;SDS011;53846;51.984;5.890;2022-12-07T07:52:50;177.23;;;168.37;;
66933;SDS011;53846;51.984;5.890;2022-12-07T07:55:20;171.40;;;162.63;;
66933;SDS011;53846;51.984;5.890;2022-12-07T07:57:49;110.77;;;105.23;;
66933;SDS011;53846;51.984;5.890;2022-12-07T08:00:22;162.30;;;154.17;;
66933;SDS011;53846;51.984;5.890;2022-12-07T08:02:51;179.53;;;170.37;;
66933;SDS011;53846;51.984;5.890;2022-12-07T08:05:23;163.03;;;154.47;;
66933;SDS011;53846;51.984;5.890;2022-12-07T08:07:52;198.20;;;187.70;;
66933;SDS011;53846;51.984;5.890;2022-12-07T08:10:21;174.73;;;165.80;;
66933;SDS011;53846;51.984;5.890;2022-12-07T08:12:51;196.97;;;186.80;;
66933;SDS011;53846;51.984;5.890;2022-12-07T08:15:35;196.97;;;187.03;;
66933;SDS011;53846;51.984;5.890;2022-12-07T08:18:06;193.27;;;183.23;;
66933;SDS011;53846;51.984;5.890;2022-12-07T08:20:38;239.70;;;227.20;;
66933;SDS011;53846;51.984;5.890;2022-12-07T08:23:08;225.83;;;214.33;;
66933;SDS011;53846;51.984;5.890;2022-12-07T08:25:38;278.50;;;263.63;;
66933;SDS011;53846;51.984;5.890;2022-12-07T08:28:08;296.70;;;281.10;;
66933;SDS011;53846;51.984;5.890;2022-12-07T08:30:37;315.40;;;298.43;;
66933;SDS011;53846;51.984;5.890;2022-12-07T08:33:06;329.57;;;311.90;;
66933;SDS011;53846;51.984;5.890;2022-12-07T08:35:38;273.90;;;259.67;;
66933;SDS011;53846;51.984;5.890;2022-12-07T08:38:07;253.27;;;240.13;;
66933;SDS011;53846;51.984;5.890;2022-12-07T08:40:36;264.63;;;250.97;;
66933;SDS011;53846;51.984;5.890;2022-12-07T08:43:08;231.70;;;219.70;;
66933;SDS011;53846;51.984;5.890;2022-12-07T08:45:43;250.65;;;237.65;;
66933;SDS011;53846;51.984;5.890;2022-12-07T08:48:17;263.17;;;249.57;;
66933;SDS011;53846;51.984;5.890;2022-12-07T08:50:55;225.30;;;210.37;;
66933;SDS011;53846;51.984;5.890;2022-12-07T08:53:26;222.07;;;210.37;;
66933;SDS011;53846;51.984;5.890;2022-12-07T08:55:55;211.50;;;200.57;;
66933;SDS011;53846;51.984;5.890;2022-12-07T08:58:27;232.73;;;219.90;;
66933;SDS011;53846;51.984;5.890;2022-12-07T09:01:01;225.10;;;213.60;;
66933;SDS011;53846;51.984;5.890;2022-12-07T09:03:31;311.27;;;294.70;;
66933;SDS011;53846;51.984;5.890;2022-12-07T09:06:06;345.77;;;327.03;;
66933;SDS011;53846;51.984;5.890;2022-12-07T09:08:39;345.30;;;326.60;;
66933;SDS011;53846;51.984;5.890;2022-12-07T09:11:12;358.40;;;338.83;;
66933;SDS011;53846;51.984;5.890;2022-12-07T09:13:41;296.77;;;281.17;;
66933;SDS011;53846;51.984;5.890;2022-12-07T09:16:13;168.43;;;159.87;;
66933;SDS011;53846;51.984;5.890;2022-12-07T09:18:44;49.13;;;46.77;;
66933;SDS011;53846;51.984;5.890;2022-12-07T09:21:16;39.87;;;37.97;;
66933;SDS011;53846;51.984;5.890;2022-12-07T09:23:47;40.87;;;38.97;;
66933;SDS011;53846;51.984;5.890;2022-12-07T09:26:16;40.57;;;38.63;;
66933;SDS011;53846;51.984;5.890;2022-12-07T09:28:46;45.00;;;42.87;;
66933;SDS011;53846;51.984;5.890;2022-12-07T09:31:15;39.07;;;37.27;;
66933;SDS011;53846;51.984;5.890;2022-12-07T09:33:44;43.20;;;38.23;;
66933;SDS011;53846;51.984;5.890;2022-12-07T09:36:13;44.17;;;42.07;;
66933;SDS011;53846;51.984;5.890;2022-12-07T09:38:45;41.20;;;39.23;;
66933;SDS011;53846;51.984;5.890;2022-12-07T09:41:14;35.63;;;33.93;;
66933;SDS011;53846;51.984;5.890;2022-12-07T09:43:43;29.90;;;28.50;;
66933;SDS011;53846;51.984;5.890;2022-12-07T09:46:16;40.88;;;38.95;;
66933;SDS011;53846;51.984;5.890;2022-12-07T09:48:47;53.05;;;50.53;;
66933;SDS011;53846;51.984;5.890;2022-12-07T09:51:19;58.25;;;55.45;;
66933;SDS011;53846;51.984;5.890;2022-12-07T09:53:53;38.55;;;36.75;;
66933;SDS011;53846;51.984;5.890;2022-12-07T09:56:25;31.48;;;29.90;;
66933;SDS011;53846;51.984;5.890;2022-12-07T09:58:58;23.98;;;22.88;;
66933;SDS011;53846;51.984;5.890;2022-12-07T10:01:31;19.60;;;18.70;;
66933;SDS011;53846;51.984;5.890;2022-12-07T10:04:06;21.63;;;20.63;;
66933;SDS011;53846;51.984;5.890;2022-12-07T10:06:41;21.77;;;20.80;;
66933;SDS011;53846;51.984;5.890;2022-12-07T10:09:14;18.48;;;17.65;;
66933;SDS011;53846;51.984;5.890;2022-12-07T10:12:00;18.88;;;18.02;;
66933;SDS011;53846;51.984;5.890;2022-12-07T10:14:32;17.40;;;16.63;;
66933;SDS011;53846;51.984;5.890;2022-12-07T10:17:05;17.20;;;16.42;;
66933;SDS011;53846;51.984;5.890;2022-12-07T10:20:12;15.40;;;14.60;;
66933;SDS011;53846;51.984;5.890;2022-12-07T10:22:56;15.10;;;14.43;;
66933;SDS011;53846;51.984;5.890;2022-12-07T10:25:31;14.00;;;13.40;;
66933;SDS011;53846;51.984;5.890;2022-12-07T10:28:02;12.85;;;12.27;;
66933;SDS011;53846;51.984;5.890;2022-12-07T10:30:48;11.55;;;11.05;;
66933;SDS011;53846;51.984;5.890;2022-12-07T10:33:30;11.05;;;10.55;;
66933;SDS011;53846;51.984;5.890;2022-12-07T10:38:51;31.00;;;29.60;;
66933;SDS011;53846;51.984;5.890;2022-12-07T10:41:23;13.95;;;13.35;;
66933;SDS011;53846;51.984;5.890;2022-12-07T10:43:56;12.48;;;11.95;;
66933;SDS011;53846;51.984;5.890;2022-12-07T10:46:34;10.52;;;10.07;;
66933;SDS011;53846;51.984;5.890;2022-12-07T10:52:33;11.43;;;10.93;;
66933;SDS011;53846;51.984;5.890;2022-12-07T10:55:20;11.68;;;11.18;;
66933;SDS011;53846;51.984;5.890;2022-12-07T10:58:12;13.27;;;12.68;;
66933;SDS011;53846;51.984;5.890;2022-12-07T11:00:54;11.35;;;10.85;;
66933;SDS011;53846;51.984;5.890;2022-12-07T11:03:33;11.57;;;11.07;;
66933;SDS011;53846;51.984;5.890;2022-12-07T11:06:16;11.23;;;10.73;;
66933;SDS011;53846;51.984;5.890;2022-12-07T11:08:57;10.98;;;10.48;;
66933;SDS011;53846;51.984;5.890;2022-12-07T11:11:45;10.73;;;10.25;;
66933;SDS011;53846;51.984;5.890;2022-12-07T11:14:25;13.45;;;12.85;;
66933;SDS011;53846;51.984;5.890;2022-12-07T11:17:04;15.27;;;14.57;;
66933;SDS011;53846;51.984;5.890;2022-12-07T11:19:45;16.50;;;15.77;;
66933;SDS011;53846;51.984;5.890;2022-12-07T11:22:33;14.05;;;13.45;;
66933;SDS011;53846;51.984;5.890;2022-12-07T11:25:18;13.82;;;13.23;;
66933;SDS011;53846;51.984;5.890;2022-12-07T11:28:00;17.40;;;16.50;;
66933;SDS011;53846;51.984;5.890;2022-12-07T11:30:45;13.70;;;13.10;;
66933;SDS011;53846;51.984;5.890;2022-12-07T11:33:21;15.73;;;14.93;;
66933;SDS011;53846;51.984;5.890;2022-12-07T11:36:02;15.38;;;14.68;;
66933;SDS011;53846;51.984;5.890;2022-12-07T11:38:38;15.73;;;15.02;;
66933;SDS011;53846;51.984;5.890;2022-12-07T11:41:12;18.77;;;17.92;;
66933;SDS011;53846;51.984;5.890;2022-12-07T11:43:50;16.40;;;15.70;;
66933;SDS011;53846;51.984;5.890;2022-12-07T11:46:27;13.25;;;12.65;;
66933;SDS011;53846;51.984;5.890;2022-12-07T11:49:08;10.07;;;9.68;;
66933;SDS011;53846;51.984;5.890;2022-12-07T11:51:41;11.80;;;11.20;;
66933;SDS011;53846;51.984;5.890;2022-12-07T11:54:15;9.52;;;9.13;;
66933;SDS011;53846;51.984;5.890;2022-12-07T11:56:49;10.93;;;10.05;;
66933;SDS011;53846;51.984;5.890;2022-12-07T11:59:21;8.48;;;8.07;;
66933;SDS011;53846;51.984;5.890;2022-12-07T12:02:03;6.82;;;6.53;;
66933;SDS011;53846;51.984;5.890;2022-12-07T12:04:45;8.57;;;8.18;;
66933;SDS011;53846;51.984;5.890;2022-12-07T12:07:20;8.60;;;8.20;;
66933;SDS011;53846;51.984;5.890;2022-12-07T12:09:51;8.05;;;7.75;;
66933;SDS011;53846;51.984;5.890;2022-12-07T12:15:28;7.70;;;7.40;;
66933;SDS011;53846;51.984;5.890;2022-12-07T12:21:23;9.60;;;9.20;;
66933;SDS011;53846;51.984;5.890;2022-12-07T12:23:58;9.95;;;9.55;;
66933;SDS011;53846;51.984;5.890;2022-12-07T12:26:31;11.27;;;10.75;;
66933;SDS011;53846;51.984;5.890;2022-12-07T12:29:04;22.42;;;21.40;;
66933;SDS011;53846;51.984;5.890;2022-12-07T12:31:36;15.57;;;14.88;;
66933;SDS011;53846;51.984;5.890;2022-12-07T12:49:33;7.63;;;7.32;;
66933;SDS011;53846;51.984;5.890;2022-12-07T12:55:25;7.88;;;7.57;;
66933;SDS011;53846;51.984;5.890;2022-12-07T13:04:14;9.85;;;9.45;;
66933;SDS011;53846;51.984;5.890;2022-12-07T13:06:53;8.88;;;8.48;;
66933;SDS011;53846;51.984;5.890;2022-12-07T13:09:23;9.10;;;8.57;;
66933;SDS011;53846;51.984;5.890;2022-12-07T13:12:00;7.30;;;7.00;;
66933;SDS011;53846;51.984;5.890;2022-12-07T13:14:52;6.43;;;6.13;;
66933;SDS011;53846;51.984;5.890;2022-12-07T13:23:14;7.38;;;7.07;;
66933;SDS011;53846;51.984;5.890;2022-12-07T13:28:47;8.70;;;8.30;;
66933;SDS011;53846;51.984;5.890;2022-12-07T13:31:26;8.18;;;7.88;;
66933;SDS011;53846;51.984;5.890;2022-12-07T13:34:01;9.07;;;8.68;;
66933;SDS011;53846;51.984;5.890;2022-12-07T13:36:32;9.02;;;8.63;;
66933;SDS011;53846;51.984;5.890;2022-12-07T13:41:56;7.60;;;7.30;;
66933;SDS011;53846;51.984;5.890;2022-12-07T13:44:33;8.60;;;8.23;;
66933;SDS011;53846;51.984;5.890;2022-12-07T13:47:10;9.35;;;8.75;;
66933;SDS011;53846;51.984;5.890;2022-12-07T13:49:46;8.15;;;7.85;;
66933;SDS011;53846;51.984;5.890;2022-12-07T13:52:18;8.40;;;8.07;;
66933;SDS011;53846;51.984;5.890;2022-12-07T13:54:54;9.23;;;8.82;;
66933;SDS011;53846;51.984;5.890;2022-12-07T13:57:26;10.70;;;10.23;;
66933;SDS011;53846;51.984;5.890;2022-12-07T14:00:03;12.85;;;12.25;;
66933;SDS011;53846;51.984;5.890;2022-12-07T14:02:54;13.93;;;13.33;;
66933;SDS011;53846;51.984;5.890;2022-12-07T14:05:26;14.27;;;13.67;;
66933;SDS011;53846;51.984;5.890;2022-12-07T14:07:56;11.00;;;10.53;;
66933;SDS011;53846;51.984;5.890;2022-12-07T14:10:27;11.10;;;10.63;;
66933;SDS011;53846;51.984;5.890;2022-12-07T14:13:02;10.70;;;10.23;;
66933;SDS011;53846;51.984;5.890;2022-12-07T14:15:53;11.90;;;11.40;;
66933;SDS011;53846;51.984;5.890;2022-12-07T14:18:25;10.13;;;9.73;;
66933;SDS011;53846;51.984;5.890;2022-12-07T14:21:02;10.23;;;9.83;;
66933;SDS011;53846;51.984;5.890;2022-12-07T14:23:32;254.75;;;242.80;;
66933;SDS011;53846;51.984;5.890;2022-12-07T14:26:08;14.40;;;13.80;;
66933;SDS011;53846;51.984;5.890;2022-12-07T14:28:42;11.97;;;11.47;;
66933;SDS011;53846;51.984;5.890;2022-12-07T14:31:16;10.60;;;10.13;;
66933;SDS011;53846;51.984;5.890;2022-12-07T14:33:46;11.30;;;10.80;;
66933;SDS011;53846;51.984;5.890;2022-12-07T14:36:26;10.73;;;10.27;;
66933;SDS011;53846;51.984;5.890;2022-12-07T14:38:57;11.97;;;11.47;;
66933;SDS011;53846;51.984;5.890;2022-12-07T14:41:29;13.47;;;12.87;;
66933;SDS011;53846;51.984;5.890;2022-12-07T14:44:16;12.90;;;12.30;;
66933;SDS011;53846;51.984;5.890;2022-12-07T14:46:49;13.10;;;12.50;;
66933;SDS011;53846;51.984;5.890;2022-12-07T14:49:19;15.13;;;14.43;;
66933;SDS011;53846;51.984;5.890;2022-12-07T14:51:48;12.13;;;11.63;;
66933;SDS011;53846;51.984;5.890;2022-12-07T14:54:18;14.63;;;14.03;;
66933;SDS011;53846;51.984;5.890;2022-12-07T14:56:48;13.40;;;12.80;;
66933;SDS011;53846;51.984;5.890;2022-12-07T14:59:20;11.90;;;11.40;;
66933;SDS011;53846;51.984;5.890;2022-12-07T15:01:52;12.60;;;12.07;;
66933;SDS011;53846;51.984;5.890;2022-12-07T15:04:24;12.73;;;12.13;;
66933;SDS011;53846;51.984;5.890;2022-12-07T15:06:56;13.37;;;12.77;;
66933;SDS011;53846;51.984;5.890;2022-12-07T15:09:26;15.13;;;14.43;;
66933;SDS011;53846;51.984;5.890;2022-12-07T15:11:55;15.00;;;14.33;;
66933;SDS011;53846;51.984;5.890;2022-12-07T15:14:25;18.57;;;17.77;;
66933;SDS011;53846;51.984;5.890;2022-12-07T15:16:56;19.43;;;18.53;;
66933;SDS011;53846;51.984;5.890;2022-12-07T15:19:26;20.77;;;19.87;;
66933;SDS011;53846;51.984;5.890;2022-12-07T15:21:55;20.10;;;19.20;;
66933;SDS011;53846;51.984;5.890;2022-12-07T15:24:25;24.10;;;23.00;;
66933;SDS011;53846;51.984;5.890;2022-12-07T15:26:58;22.57;;;21.57;;
66933;SDS011;53846;51.984;5.890;2022-12-07T15:29:27;23.67;;;22.57;;
66933;SDS011;53846;51.984;5.890;2022-12-07T15:31:59;27.67;;;26.37;;
66933;SDS011;53846;51.984;5.890;2022-12-07T15:34:29;28.30;;;27.00;;
66933;SDS011;53846;51.984;5.890;2022-12-07T15:36:58;28.30;;;27.00;;
66933;SDS011;53846;51.984;5.890;2022-12-07T15:39:27;30.50;;;29.10;;